Time;durP1;ratioP1;P1;durP2;ratioP2;P2;SDS_P1;SDS_P2;PMS_P1;PMS_P2;Temp;Humidity;BMP_temperature;BMP_pressure;BME280_temperature;BME280_humidity;BME280_pressure;Samples;Min_cycle;Max_cycle;Signal;HPM_P1;HPM_P2
2022/02/12 00:00:31;;;;;;;10.15;7.30;;;;;;;;;;5072846;28;20286;-68
2022/02/12 00:02:59;;;;;;;10.23;6.07;;;;;;;;;;5073058;28;20206;-67
2022/02/12 00:05:26;;;;;;;13.35;7.22;;;;;;;;;;5072754;28;20200;-68
2022/02/12 00:07:55;;;;;;;19.65;8.35;;;;;;;;;;5072662;28;20216;-67
2022/02/12 00:10:23;;;;;;;12.02;6.63;;;;;;;;;;5072990;28;20253;-68
2022/02/12 00:12:50;;;;;;;9.27;5.65;;;;;;;;;;5072819;28;20233;-67
2022/02/12 00:15:19;;;;;;;12.40;5.63;;;;;;;;;;5072981;28;20253;-67
2022/02/12 00:17:46;;;;;;;14.73;6.00;;;;;;;;;;5072596;28;20200;-67
2022/02/12 00:20:14;;;;;;;14.45;7.03;;;;;;;;;;5073346;28;20280;-67
2022/02/12 00:22:42;;;;;;;14.98;6.47;;;;;;;;;;5072917;28;20251;-68
2022/02/12 00:25:10;;;;;;;20.48;6.47;;;;;;;;;;5073185;28;20201;-67
2022/02/12 00:27:37;;;;;;;16.05;6.15;;;;;;;;;;5072711;28;20227;-67
2022/02/12 00:30:05;;;;;;;13.20;5.65;;;;;;;;;;5072500;28;20201;-67
2022/02/12 00:32:33;;;;;;;9.50;5.03;;;;;;;;;;5076145;28;20190;-67
2022/02/12 00:35:01;;;;;;;15.35;6.07;;;;;;;;;;5076065;28;20234;-68
2022/02/12 00:37:30;;;;;;;13.93;5.72;;;;;;;;;;5076363;28;20281;-67
2022/02/12 00:39:57;;;;;;;13.68;5.85;;;;;;;;;;5075965;28;20198;-67
2022/02/12 00:42:24;;;;;;;13.60;4.65;;;;;;;;;;5076195;28;20198;-67
2022/02/12 00:44:52;;;;;;;10.32;5.40;;;;;;;;;;5076149;28;20293;-67
2022/02/12 00:47:19;;;;;;;13.15;5.20;;;;;;;;;;5076095;28;20308;-67
2022/02/12 00:49:48;;;;;;;7.93;5.03;;;;;;;;;;5076317;28;20278;-67
2022/02/12 00:52:15;;;;;;;10.35;6.32;;;;;;;;;;5075765;28;20238;-68
2022/02/12 00:54:42;;;;;;;18.17;6.80;;;;;;;;;;5075746;28;20304;-67
2022/02/12 00:57:10;;;;;;;10.48;5.18;;;;;;;;;;5075626;28;20255;-67
2022/02/12 00:59:37;;;;;;;10.77;5.30;;;;;;;;;;5076172;28;20198;-68
2022/02/12 01:02:04;;;;;;;9.52;5.93;;;;;;;;;;5075890;28;20538;-67
2022/02/12 01:04:32;;;;;;;14.85;5.60;;;;;;;;;;5075777;28;20254;-67
2022/02/12 01:07:00;;;;;;;13.77;5.72;;;;;;;;;;5075754;28;20276;-67
2022/02/12 01:09:28;;;;;;;9.07;5.20;;;;;;;;;;5075435;28;20201;-68
2022/02/12 01:11:55;;;;;;;11.27;6.57;;;;;;;;;;5075658;28;20196;-67
2022/02/12 01:14:22;;;;;;;9.23;5.72;;;;;;;;;;5075716;28;20281;-67
2022/02/12 01:16:50;;;;;;;13.07;7.03;;;;;;;;;;5075527;28;20616;-67
2022/02/12 01:19:17;;;;;;;6.55;5.30;;;;;;;;;;5075248;28;20230;-67
2022/02/12 01:21:44;;;;;;;11.57;6.53;;;;;;;;;;5075497;28;20200;-67
2022/02/12 01:24:13;;;;;;;19.10;7.68;;;;;;;;;;5075456;28;20227;-69
2022/02/12 01:26:40;;;;;;;10.88;5.45;;;;;;;;;;5075721;28;20328;-69
2022/02/12 01:29:07;;;;;;;8.98;5.85;;;;;;;;;;5075005;28;20228;-67
2022/02/12 01:31:35;;;;;;;12.85;5.97;;;;;;;;;;5075338;28;20235;-68
2022/02/12 01:34:02;;;;;;;9.52;6.78;;;;;;;;;;5074931;28;20290;-67
2022/02/12 01:36:29;;;;;;;9.77;6.10;;;;;;;;;;5074947;28;20544;-67
2022/02/12 01:38:56;;;;;;;8.20;5.05;;;;;;;;;;5075698;28;20202;-67
2022/02/12 01:41:25;;;;;;;11.02;5.85;;;;;;;;;;5075886;28;20229;-68
2022/02/12 01:43:52;;;;;;;13.55;7.20;;;;;;;;;;5074968;28;20197;-68
2022/02/12 01:46:20;;;;;;;15.25;6.80;;;;;;;;;;5075015;28;20202;-68
2022/02/12 01:48:47;;;;;;;13.75;5.85;;;;;;;;;;5075017;28;20222;-67
2022/02/12 01:51:14;;;;;;;21.95;5.80;;;;;;;;;;5075567;28;20194;-68
2022/02/12 01:53:41;;;;;;;16.15;6.57;;;;;;;;;;5074856;28;20612;-67
2022/02/12 01:56:09;;;;;;;15.88;6.65;;;;;;;;;;5075055;28;20214;-68
2022/02/12 01:58:37;;;;;;;10.25;6.00;;;;;;;;;;5074812;28;20231;-68
2022/02/12 02:01:05;;;;;;;10.60;6.28;;;;;;;;;;5074356;28;20210;-68
2022/02/12 02:03:33;;;;;;;11.23;6.38;;;;;;;;;;5074628;28;20193;-67
2022/02/12 02:06:00;;;;;;;13.18;6.53;;;;;;;;;;5075100;28;20257;-67
2022/02/12 02:08:28;;;;;;;18.25;5.85;;;;;;;;;;5074399;28;20211;-67
2022/02/12 02:10:56;;;;;;;11.88;6.15;;;;;;;;;;5074592;28;20291;-68
2022/02/12 02:13:27;;;;;;;13.40;5.80;;;;;;;;;;5074505;28;20277;-67
2022/02/12 02:16:01;;;;;;;13.43;6.32;;;;;;;;;;5074791;28;20236;-67
2022/02/12 02:18:28;;;;;;;7.90;5.97;;;;;;;;;;5074859;28;20190;-67
2022/02/12 02:20:56;;;;;;;11.88;6.28;;;;;;;;;;5074600;28;20222;-67
2022/02/12 02:23:24;;;;;;;13.75;6.50;;;;;;;;;;5073854;28;20229;-66
2022/02/12 02:25:52;;;;;;;13.23;6.57;;;;;;;;;;5074213;28;20194;-66
2022/02/12 02:28:19;;;;;;;10.85;6.30;;;;;;;;;;5074155;28;20214;-67
2022/02/12 02:30:46;;;;;;;13.07;7.28;;;;;;;;;;5074207;28;20277;-67
2022/02/12 02:33:13;;;;;;;12.32;6.60;;;;;;;;;;5073810;28;20282;-67
2022/02/12 02:35:42;;;;;;;12.82;6.00;;;;;;;;;;5074066;28;20259;-67
2022/02/12 02:38:10;;;;;;;14.32;6.47;;;;;;;;;;5073714;28;20294;-67
2022/02/12 02:40:38;;;;;;;14.20;7.32;;;;;;;;;;5073749;28;20199;-67
2022/02/12 02:43:06;;;;;;;7.43;6.13;;;;;;;;;;5073618;28;20238;-67
2022/02/12 02:45:33;;;;;;;14.55;6.60;;;;;;;;;;5073879;28;20594;-67
2022/02/12 02:48:02;;;;;;;28.20;7.22;;;;;;;;;;5074064;28;20218;-68
2022/02/12 02:56:07;;;;;;;10.27;6.70;;;;;;;;;;5073682;28;20550;-68
2022/02/12 02:58:36;;;;;;;15.77;6.70;;;;;;;;;;5073799;28;20228;-67
2022/02/12 03:01:05;;;;;;;16.30;7.00;;;;;;;;;;5073378;28;20656;-67
2022/02/12 03:03:32;;;;;;;16.73;6.45;;;;;;;;;;5074104;28;20285;-67
2022/02/12 03:06:00;;;;;;;13.82;7.13;;;;;;;;;;5073606;28;20198;-67
2022/02/12 03:08:28;;;;;;;17.13;7.13;;;;;;;;;;5073503;28;20225;-66
2022/02/12 03:10:55;;;;;;;9.60;6.68;;;;;;;;;;5073833;28;20211;-66
2022/02/12 03:13:24;;;;;;;15.57;7.38;;;;;;;;;;5073529;28;20233;-67
2022/02/12 03:15:52;;;;;;;13.85;7.03;;;;;;;;;;5073519;28;20565;-66
2022/02/12 03:18:19;;;;;;;17.27;7.93;;;;;;;;;;5073688;28;20202;-66
2022/02/12 03:20:46;;;;;;;17.35;8.20;;;;;;;;;;5073373;28;20198;-67
2022/02/12 03:23:14;;;;;;;12.68;5.90;;;;;;;;;;5073112;28;20271;-67
2022/02/12 03:25:41;;;;;;;10.63;6.90;;;;;;;;;;5073635;28;20603;-67
2022/02/12 03:28:08;;;;;;;12.93;7.03;;;;;;;;;;5073354;28;20249;-66
2022/02/12 03:30:38;;;;;;;16.60;7.05;;;;;;;;;;5073105;28;20197;-67
2022/02/12 03:33:06;;;;;;;15.93;6.40;;;;;;;;;;5073120;28;20178;-66
2022/02/12 03:35:33;;;;;;;23.45;6.80;;;;;;;;;;5073303;28;20226;-66
2022/02/12 03:38:07;;;;;;;13.85;6.05;;;;;;;;;;5073047;28;20564;-66
2022/02/12 03:40:35;;;;;;;19.50;7.28;;;;;;;;;;5073336;28;20233;-66
2022/02/12 03:43:02;;;;;;;13.95;5.85;;;;;;;;;;5072983;28;20241;-66
2022/02/12 03:45:29;;;;;;;14.25;6.45;;;;;;;;;;5073232;28;20233;-67
2022/02/12 03:47:58;;;;;;;18.02;6.32;;;;;;;;;;5072868;28;20301;-67
2022/02/12 03:50:27;;;;;;;22.02;9.20;;;;;;;;;;5073240;28;20230;-66
2022/02/12 03:52:54;;;;;;;13.48;6.70;;;;;;;;;;5072961;28;20590;-67
2022/02/12 03:55:22;;;;;;;16.52;7.15;;;;;;;;;;5073664;28;20706;-67
2022/02/12 03:57:49;;;;;;;15.98;5.68;;;;;;;;;;5073196;28;20230;-67
2022/02/12 04:00:17;;;;;;;16.70;6.78;;;;;;;;;;5072811;28;20285;-66
2022/02/12 04:02:45;;;;;;;14.55;6.32;;;;;;;;;;5072694;28;20201;-67
2022/02/12 04:05:15;;;;;;;25.33;6.10;;;;;;;;;;5073126;28;20567;-67
2022/02/12 04:07:42;;;;;;;15.02;5.70;;;;;;;;;;5077018;28;20186;-67
2022/02/12 04:10:10;;;;;;;10.88;5.90;;;;;;;;;;5076864;28;20222;-67
2022/02/12 04:12:38;;;;;;;9.43;6.05;;;;;;;;;;5076791;28;20194;-67
2022/02/12 04:15:05;;;;;;;7.40;5.30;;;;;;;;;;5076455;28;20244;-66
2022/02/12 04:17:34;;;;;;;6.82;5.45;;;;;;;;;;5077232;28;20220;-66
2022/02/12 04:20:02;;;;;;;11.07;6.00;;;;;;;;;;5076703;28;20191;-66
2022/02/12 04:22:32;;;;;;;9.23;6.68;;;;;;;;;;5076794;28;20206;-67
2022/02/12 04:24:59;;;;;;;10.70;5.60;;;;;;;;;;5076701;28;20187;-67
2022/02/12 04:27:26;;;;;;;12.13;5.60;;;;;;;;;;5076750;28;20290;-68
2022/02/12 04:29:54;;;;;;;11.75;5.80;;;;;;;;;;5076494;28;20324;-66
2022/02/12 04:32:21;;;;;;;11.52;5.40;;;;;;;;;;5076571;28;20212;-67
2022/02/12 04:34:49;;;;;;;9.93;5.50;;;;;;;;;;5076185;28;20534;-67
2022/02/12 04:37:16;;;;;;;12.60;6.45;;;;;;;;;;5076267;28;20232;-68
2022/02/12 04:39:45;;;;;;;13.30;5.60;;;;;;;;;;5075994;28;20236;-67
2022/02/12 04:42:12;;;;;;;11.48;6.50;;;;;;;;;;5076275;28;20289;-67
2022/02/12 04:44:40;;;;;;;10.18;4.57;;;;;;;;;;5075937;28;20202;-67
2022/02/12 04:47:07;;;;;;;16.25;6.97;;;;;;;;;;5076176;28;20613;-66
2022/02/12 04:49:35;;;;;;;12.30;6.07;;;;;;;;;;5076037;28;20214;-67
2022/02/12 04:52:02;;;;;;;12.60;7.95;;;;;;;;;;5075775;28;20193;-67
2022/02/12 04:54:29;;;;;;;16.88;5.90;;;;;;;;;;5076387;28;20285;-68
2022/02/12 04:56:58;;;;;;;12.10;5.70;;;;;;;;;;5075986;28;20221;-67
2022/02/12 04:59:26;;;;;;;14.05;5.72;;;;;;;;;;5076476;28;20285;-67
2022/02/12 05:01:53;;;;;;;13.73;5.43;;;;;;;;;;5075767;28;20285;-67
2022/02/12 05:04:23;;;;;;;13.63;6.25;;;;;;;;;;5076304;28;20289;-67
2022/02/12 05:06:50;;;;;;;8.93;6.18;;;;;;;;;;5075826;28;20293;-68
2022/02/12 05:09:18;;;;;;;7.95;5.72;;;;;;;;;;5075398;28;20224;-67
2022/02/12 05:11:47;;;;;;;12.70;5.60;;;;;;;;;;5075533;28;20251;-66
2022/02/12 05:14:16;;;;;;;14.60;6.05;;;;;;;;;;5076347;28;20197;-66
2022/02/12 05:16:44;;;;;;;11.30;6.15;;;;;;;;;;5075287;28;20632;-67
2022/02/12 05:19:11;;;;;;;13.63;5.13;;;;;;;;;;5076265;28;20202;-67
2022/02/12 05:21:40;;;;;;;11.10;5.97;;;;;;;;;;5075923;28;20621;-67
2022/02/12 05:24:07;;;;;;;18.80;5.18;;;;;;;;;;5075745;28;20230;-67
2022/02/12 05:26:35;;;;;;;7.40;6.28;;;;;;;;;;5075468;28;20281;-67
2022/02/12 05:29:02;;;;;;;10.93;5.10;;;;;;;;;;5074812;28;20324;-66
2022/02/12 05:31:31;;;;;;;19.70;6.13;;;;;;;;;;5074195;28;20240;-67
2022/02/12 05:33:58;;;;;;;7.80;5.75;;;;;;;;;;5075718;28;20206;-66
2022/02/12 05:36:25;;;;;;;8.85;5.57;;;;;;;;;;5074966;28;20205;-67
2022/02/12 05:38:53;;;;;;;11.10;6.28;;;;;;;;;;5075190;28;20255;-66
2022/02/12 05:41:20;;;;;;;12.90;4.93;;;;;;;;;;5074800;28;20282;-67
2022/02/12 05:43:48;;;;;;;6.28;4.90;;;;;;;;;;5075548;28;20278;-66
2022/02/12 05:46:15;;;;;;;10.10;4.60;;;;;;;;;;5074861;28;20200;-66
2022/02/12 05:48:45;;;;;;;15.63;5.45;;;;;;;;;;5074621;28;20267;-68
2022/02/12 05:51:12;;;;;;;8.20;4.75;;;;;;;;;;5075848;28;20182;-67
2022/02/12 05:53:40;;;;;;;6.15;4.55;;;;;;;;;;5074451;28;20280;-67
2022/02/12 05:56:07;;;;;;;9.55;5.22;;;;;;;;;;5074580;28;20190;-67
2022/02/12 05:58:34;;;;;;;7.43;5.10;;;;;;;;;;5075010;28;20204;-67
2022/02/12 06:01:02;;;;;;;15.57;6.93;;;;;;;;;;5074499;28;20286;-68
2022/02/12 06:03:29;;;;;;;11.10;5.05;;;;;;;;;;5074714;28;20276;-67
2022/02/12 06:05:57;;;;;;;8.65;6.20;;;;;;;;;;5074703;28;20288;-68
2022/02/12 06:08:25;;;;;;;15.68;5.35;;;;;;;;;;5074845;28;20204;-67
2022/02/12 06:10:53;;;;;;;10.82;4.60;;;;;;;;;;5074903;28;20221;-69
2022/02/12 06:13:20;;;;;;;8.02;4.70;;;;;;;;;;5074227;28;20191;-68
2022/02/12 06:15:47;;;;;;;8.07;4.70;;;;;;;;;;5074459;28;20237;-68
2022/02/12 06:18:15;;;;;;;8.93;4.70;;;;;;;;;;5074717;28;20277;-68
2022/02/12 06:20:42;;;;;;;8.38;5.00;;;;;;;;;;5074398;28;20202;-68
2022/02/12 06:23:10;;;;;;;10.45;5.05;;;;;;;;;;5074374;28;20230;-68
2022/02/12 06:25:38;;;;;;;10.30;5.25;;;;;;;;;;5074708;28;20222;-68
2022/02/12 06:28:06;;;;;;;9.85;5.15;;;;;;;;;;5073887;28;20233;-68
2022/02/12 06:30:33;;;;;;;8.98;5.35;;;;;;;;;;5073521;28;20572;-69
2022/02/12 06:33:00;;;;;;;9.02;5.00;;;;;;;;;;5074140;28;20282;-69
2022/02/12 06:35:28;;;;;;;12.18;4.55;;;;;;;;;;5073825;28;20747;-69
2022/02/12 06:37:56;;;;;;;16.45;5.28;;;;;;;;;;5074147;28;20233;-68
2022/02/12 06:40:25;;;;;;;20.02;5.80;;;;;;;;;;5074053;28;20202;-68
2022/02/12 06:42:53;;;;;;;9.05;5.13;;;;;;;;;;5073994;28;20194;-67
2022/02/12 06:45:20;;;;;;;12.50;5.20;;;;;;;;;;5074291;28;20553;-69
2022/02/12 06:47:47;;;;;;;15.88;4.47;;;;;;;;;;5073929;28;20216;-69
2022/02/12 06:50:15;;;;;;;8.73;4.53;;;;;;;;;;5073487;28;20218;-68
2022/02/12 06:52:42;;;;;;;9.38;5.60;;;;;;;;;;5073722;28;20293;-67
2022/02/12 06:55:11;;;;;;;10.52;5.55;;;;;;;;;;5073529;28;20334;-67
2022/02/12 06:57:39;;;;;;;7.95;4.28;;;;;;;;;;5073473;28;20205;-69
2022/02/12 07:00:07;;;;;;;18.05;5.43;;;;;;;;;;5073511;28;20668;-68
2022/02/12 07:02:35;;;;;;;9.10;5.60;;;;;;;;;;5073325;28;20235;-68
2022/02/12 07:05:04;;;;;;;16.15;4.70;;;;;;;;;;5073665;28;20218;-67
2022/02/12 07:07:31;;;;;;;11.35;5.22;;;;;;;;;;5073663;28;20648;-69
2022/02/12 07:09:59;;;;;;;8.20;4.93;;;;;;;;;;5073219;28;20224;-68
2022/02/12 07:12:26;;;;;;;8.80;4.10;;;;;;;;;;5073285;28;20195;-69
2022/02/12 07:14:54;;;;;;;12.20;4.88;;;;;;;;;;5073621;28;20244;-68
2022/02/12 07:17:22;;;;;;;12.77;4.80;;;;;;;;;;5073533;28;20225;-69
2022/02/12 07:19:49;;;;;;;11.75;4.80;;;;;;;;;;5073500;28;20198;-68
2022/02/12 07:22:16;;;;;;;14.30;6.30;;;;;;;;;;5073423;28;20608;-68
2022/02/12 07:24:43;;;;;;;8.77;4.20;;;;;;;;;;5074915;28;20503;-68
2022/02/12 07:27:11;;;;;;;8.30;5.22;;;;;;;;;;5072883;28;20237;-68
2022/02/12 07:29:38;;;;;;;10.40;5.47;;;;;;;;;;5073143;28;20253;-68
2022/02/12 07:32:07;;;;;;;12.50;5.15;;;;;;;;;;5073786;28;20190;-69
2022/02/12 07:34:34;;;;;;;12.30;5.18;;;;;;;;;;5073373;28;20281;-68
2022/02/12 07:37:01;;;;;;;12.90;4.60;;;;;;;;;;5073315;28;20195;-69
2022/02/12 07:39:29;;;;;;;8.60;4.70;;;;;;;;;;5073687;28;20248;-69
2022/02/12 07:41:56;;;;;;;13.63;5.53;;;;;;;;;;5077707;28;20202;-69
2022/02/12 07:44:23;;;;;;;13.40;4.90;;;;;;;;;;5077124;28;20233;-68
2022/02/12 07:46:51;;;;;;;10.80;4.45;;;;;;;;;;5077386;28;20234;-69
2022/02/12 07:49:19;;;;;;;6.45;5.53;;;;;;;;;;5077095;28;20221;-68
2022/02/12 07:51:46;;;;;;;11.20;6.22;;;;;;;;;;5074906;28;20201;-69
2022/02/12 07:54:14;;;;;;;12.65;5.95;;;;;;;;;;5075784;28;20686;-68
2022/02/12 07:56:41;;;;;;;10.60;5.32;;;;;;;;;;5076292;28;20206;-68
2022/02/12 07:59:09;;;;;;;10.52;3.97;;;;;;;;;;5076722;28;20285;-69
2022/02/12 08:01:36;;;;;;;9.95;4.30;;;;;;;;;;5076879;28;20210;-68
2022/02/12 08:04:03;;;;;;;9.27;4.88;;;;;;;;;;5077046;28;20709;-68
2022/02/12 08:09:17;;;;;;;14.80;4.78;;;;;;;;;;5076465;28;20212;-68
2022/02/12 08:12:01;;;;;;;18.42;4.90;;;;;;;;;;5076566;28;20226;-69
2022/02/12 08:14:29;;;;;;;9.73;3.78;;;;;;;;;;5076541;28;20270;-68
2022/02/12 08:16:56;;;;;;;17.65;4.75;;;;;;;;;;5077022;28;20260;-69
2022/02/12 08:19:25;;;;;;;12.60;4.22;;;;;;;;;;5076806;28;20626;-69
2022/02/12 08:21:54;;;;;;;8.07;4.70;;;;;;;;;;5076271;28;20195;-68
2022/02/12 08:24:21;;;;;;;10.13;4.20;;;;;;;;;;5076342;28;20259;-69
2022/02/12 08:26:48;;;;;;;7.43;5.05;;;;;;;;;;5076834;28;20644;-67
2022/02/12 08:29:16;;;;;;;13.93;4.03;;;;;;;;;;5076202;28;20238;-67
2022/02/12 08:31:43;;;;;;;12.38;4.53;;;;;;;;;;5075770;28;20194;-65
2022/02/12 08:34:10;;;;;;;8.25;4.55;;;;;;;;;;5076486;28;20295;-70
2022/02/12 08:36:38;;;;;;;10.63;4.55;;;;;;;;;;5076394;28;20281;-69
2022/02/12 08:39:06;;;;;;;9.23;4.80;;;;;;;;;;5075826;28;20234;-68
2022/02/12 08:41:34;;;;;;;9.77;5.97;;;;;;;;;;5075500;28;20253;-69
2022/02/12 08:44:01;;;;;;;7.20;3.72;;;;;;;;;;5074524;28;20289;-68
2022/02/12 08:46:28;;;;;;;10.65;4.10;;;;;;;;;;5076076;28;20201;-68
2022/02/12 08:48:55;;;;;;;9.90;5.07;;;;;;;;;;5075470;28;20290;-68
2022/02/12 08:51:22;;;;;;;5.93;3.90;;;;;;;;;;5074957;28;20250;-68
2022/02/12 08:53:50;;;;;;;10.63;4.28;;;;;;;;;;5075856;28;20243;-69
2022/02/12 08:56:20;;;;;;;5.55;3.75;;;;;;;;;;5075098;28;20248;-68
2022/02/12 08:58:47;;;;;;;8.85;4.57;;;;;;;;;;5075700;28;20205;-69
2022/02/12 09:01:15;;;;;;;10.82;4.25;;;;;;;;;;5075722;28;20204;-69
2022/02/12 09:03:42;;;;;;;12.20;4.85;;;;;;;;;;5075837;28;20200;-68
2022/02/12 09:06:09;;;;;;;10.23;5.10;;;;;;;;;;5075929;28;20195;-68
2022/02/12 09:08:36;;;;;;;15.32;4.70;;;;;;;;;;5075791;28;20306;-69
2022/02/12 09:11:04;;;;;;;11.77;4.88;;;;;;;;;;5075541;28;20313;-69
2022/02/12 09:13:32;;;;;;;8.57;4.65;;;;;;;;;;5075291;28;20654;-76
2022/02/12 09:16:00;;;;;;;12.02;4.63;;;;;;;;;;5075616;28;20198;-71
2022/02/12 09:18:27;;;;;;;13.07;4.22;;;;;;;;;;5075015;28;20207;-71
2022/02/12 09:20:54;;;;;;;10.30;4.30;;;;;;;;;;5075447;28;20745;-72
2022/02/12 09:23:23;;;;;;;11.68;4.10;;;;;;;;;;5074823;28;20318;-70
2022/02/12 09:25:50;;;;;;;9.93;4.95;;;;;;;;;;5075103;28;20314;-69
2022/02/12 09:28:17;;;;;;;10.55;4.35;;;;;;;;;;5075429;28;20285;-69
2022/02/12 09:30:46;;;;;;;12.40;5.00;;;;;;;;;;5075140;28;20303;-69
2022/02/12 09:33:13;;;;;;;15.88;4.65;;;;;;;;;;5076056;28;20545;-69
2022/02/12 09:35:40;;;;;;;9.45;4.38;;;;;;;;;;5075288;28;20246;-70
2022/02/12 09:38:08;;;;;;;5.63;3.88;;;;;;;;;;5074542;28;20202;-70
2022/02/12 09:40:35;;;;;;;9.50;3.70;;;;;;;;;;5074623;28;20207;-70
2022/02/12 09:43:03;;;;;;;8.05;4.00;;;;;;;;;;5075868;28;20298;-69
2022/02/12 09:45:34;;;;;;;18.55;6.57;;;;;;;;;;5075034;28;20252;-69
2022/02/12 09:48:04;;;;;;;11.02;4.45;;;;;;;;;;5075103;28;20195;-69
2022/02/12 09:50:32;;;;;;;9.75;4.28;;;;;;;;;;5075159;28;20628;-69
2022/02/12 09:52:59;;;;;;;6.35;3.75;;;;;;;;;;5074870;28;20606;-70
2022/02/12 09:55:28;;;;;;;14.48;5.18;;;;;;;;;;5074459;28;20206;-69
2022/02/12 09:57:55;;;;;;;11.75;4.47;;;;;;;;;;5074461;28;20671;-70
2022/02/12 10:00:22;;;;;;;6.78;3.85;;;;;;;;;;5074463;28;20232;-69
2022/02/12 10:02:49;;;;;;;5.35;3.97;;;;;;;;;;5074240;28;20282;-69
2022/02/12 10:05:19;;;;;;;5.57;3.33;;;;;;;;;;5074129;28;20205;-69
2022/02/12 10:07:46;;;;;;;14.30;4.10;;;;;;;;;;5074310;28;20295;-69
2022/02/12 10:10:15;;;;;;;10.40;4.03;;;;;;;;;;5074493;28;20217;-69
2022/02/12 10:12:42;;;;;;;12.00;5.82;;;;;;;;;;5074577;28;20237;-69
2022/02/12 10:15:12;;;;;;;8.07;3.85;;;;;;;;;;5074010;28;20200;-69
2022/02/12 10:17:52;;;;;;;13.07;4.35;;;;;;;;;;5073966;28;20226;-69
2022/02/12 10:20:29;;;;;;;12.15;4.57;;;;;;;;;;5073976;28;20222;-69
2022/02/12 10:23:03;;;;;;;7.22;3.78;;;;;;;;;;5074541;28;20231;-69
2022/02/12 10:25:31;;;;;;;7.05;3.42;;;;;;;;;;5073870;28;20654;-69
2022/02/12 10:27:58;;;;;;;9.90;4.55;;;;;;;;;;5074143;28;20222;-69
2022/02/12 10:30:26;;;;;;;10.15;3.95;;;;;;;;;;5074100;28;20238;-71
2022/02/12 10:32:55;;;;;;;11.98;5.03;;;;;;;;;;5073679;28;20205;-70
2022/02/12 10:35:23;;;;;;;11.60;3.92;;;;;;;;;;5074633;28;20201;-70
2022/02/12 10:37:53;;;;;;;12.15;4.35;;;;;;;;;;5073637;28;20193;-70
2022/02/12 10:40:20;;;;;;;12.77;4.55;;;;;;;;;;5074128;28;20669;-70
2022/02/12 10:42:47;;;;;;;10.82;5.03;;;;;;;;;;5073876;28;20196;-69
2022/02/12 10:45:16;;;;;;;7.25;4.40;;;;;;;;;;5073775;28;20290;-69
2022/02/12 10:47:44;;;;;;;19.55;6.07;;;;;;;;;;5073547;28;20200;-69
2022/02/12 10:50:12;;;;;;;9.48;5.65;;;;;;;;;;5073376;28;20219;-69
2022/02/12 10:52:43;;;;;;;10.93;4.28;;;;;;;;;;5073733;28;20233;-69
2022/02/12 10:55:29;;;;;;;10.95;3.67;;;;;;;;;;5073767;28;20196;-69
2022/02/12 10:57:57;;;;;;;7.95;4.05;;;;;;;;;;5074644;28;20265;-69
2022/02/12 11:00:26;;;;;;;15.05;4.53;;;;;;;;;;5073365;28;20680;-69
2022/02/12 11:02:54;;;;;;;11.07;3.90;;;;;;;;;;5073171;28;20210;-69
2022/02/12 11:05:22;;;;;;;10.45;4.00;;;;;;;;;;5073295;28;20192;-69
2022/02/12 11:07:49;;;;;;;5.88;3.75;;;;;;;;;;5072736;28;20203;-69
2022/02/12 11:10:17;;;;;;;11.75;4.25;;;;;;;;;;5073356;28;20633;-69
2022/02/12 11:12:45;;;;;;;9.98;4.88;;;;;;;;;;5073084;28;20238;-69
2022/02/12 11:15:13;;;;;;;9.10;4.03;;;;;;;;;;5072984;28;20213;-68
2022/02/12 11:17:42;;;;;;;10.05;3.50;;;;;;;;;;5073378;28;20230;-69
2022/02/12 11:20:11;;;;;;;12.38;4.65;;;;;;;;;;5074184;28;20232;-69
2022/02/12 11:22:39;;;;;;;8.13;3.90;;;;;;;;;;5073309;28;20225;-69
2022/02/12 11:25:22;;;;;;;7.55;4.30;;;;;;;;;;5072933;28;20237;-68
2022/02/12 11:28:04;;;;;;;11.07;3.83;;;;;;;;;;5072761;28;20574;-68
2022/02/12 11:30:31;;;;;;;7.32;3.42;;;;;;;;;;5073411;28;20208;-68
2022/02/12 11:33:00;;;;;;;11.95;4.60;;;;;;;;;;5072962;28;20207;-69
2022/02/12 11:35:28;;;;;;;9.93;4.90;;;;;;;;;;5072597;28;20288;-70
2022/02/12 11:37:55;;;;;;;8.93;3.50;;;;;;;;;;5073331;28;20205;-70
2022/02/12 11:40:24;;;;;;;11.43;4.15;;;;;;;;;;5072135;28;20191;-69
2022/02/12 11:42:53;;;;;;;12.75;4.18;;;;;;;;;;5073123;28;20200;-69
2022/02/12 11:45:25;;;;;;;7.07;4.32;;;;;;;;;;5072951;28;20193;-71
2022/02/12 11:48:11;;;;;;;6.50;3.80;;;;;;;;;;5073622;28;20204;-69
2022/02/12 11:50:42;;;;;;;10.68;4.05;;;;;;;;;;5071862;28;20218;-70
2022/02/12 11:53:24;;;;;;;8.68;4.28;;;;;;;;;;5071897;28;20200;-71
2022/02/12 11:55:51;;;;;;;6.80;3.40;;;;;;;;;;5072241;28;20747;-70
2022/02/12 11:58:23;;;;;;;6.72;3.97;;;;;;;;;;5072459;28;20287;-69
2022/02/12 12:00:51;;;;;;;5.35;3.13;;;;;;;;;;5072593;28;20200;-69
2022/02/12 12:03:18;;;;;;;10.90;3.88;;;;;;;;;;5072271;28;20193;-70
2022/02/12 12:05:46;;;;;;;9.70;4.63;;;;;;;;;;5072247;28;20199;-69
2022/02/12 12:08:15;;;;;;;9.85;4.32;;;;;;;;;;5072107;28;20204;-69
2022/02/12 12:11:01;;;;;;;4.43;3.63;;;;;;;;;;5072326;28;20312;-69
2022/02/12 12:13:41;;;;;;;8.70;3.25;;;;;;;;;;5072290;28;20213;-68
2022/02/12 12:16:23;;;;;;;7.20;3.50;;;;;;;;;;5071997;28;20214;-68
2022/02/12 12:18:50;;;;;;;7.57;3.20;;;;;;;;;;5072605;28;20211;-69
2022/02/12 12:21:18;;;;;;;6.45;3.45;;;;;;;;;;5072150;28;20225;-69
2022/02/12 12:23:54;;;;;;;6.88;4.00;;;;;;;;;;5072159;28;20274;-70
2022/02/12 12:26:23;;;;;;;9.57;3.05;;;;;;;;;;5072311;28;20185;-70
2022/02/12 12:31:34;;;;;;;14.00;3.75;;;;;;;;;;5075463;28;20288;-69
2022/02/12 12:34:07;;;;;;;7.30;3.10;;;;;;;;;;5075963;28;20192;-69
2022/02/12 12:36:38;;;;;;;6.13;3.10;;;;;;;;;;5075768;28;20600;-70
2022/02/12 12:39:10;;;;;;;5.68;2.83;;;;;;;;;;5075426;28;20202;-70
2022/02/12 12:41:39;;;;;;;7.25;3.30;;;;;;;;;;5076619;28;20194;-70
2022/02/12 12:44:10;;;;;;;9.90;2.85;;;;;;;;;;5075810;28;20197;-71
2022/02/12 12:46:40;;;;;;;6.60;2.85;;;;;;;;;;5076129;28;20200;-69
2022/02/12 12:49:08;;;;;;;9.18;4.35;;;;;;;;;;5077176;28;20196;-70
2022/02/12 12:51:36;;;;;;;10.82;3.22;;;;;;;;;;5075989;28;20697;-70
2022/02/12 12:54:03;;;;;;;8.15;3.08;;;;;;;;;;5075911;28;20218;-71
2022/02/12 12:56:30;;;;;;;4.57;3.22;;;;;;;;;;5075430;28;20197;-70
2022/02/12 12:59:04;;;;;;;6.95;4.63;;;;;;;;;;5075608;28;20203;-71
2022/02/12 13:01:32;;;;;;;4.63;3.85;;;;;;;;;;5075850;28;20243;-70
2022/02/12 13:04:02;;;;;;;11.15;4.05;;;;;;;;;;5075294;28;20202;-70
2022/02/12 13:06:29;;;;;;;7.20;3.90;;;;;;;;;;5076240;28;20202;-69
2022/02/12 13:08:56;;;;;;;5.07;2.72;;;;;;;;;;5075915;28;20609;-70
2022/02/12 13:11:27;;;;;;;10.07;3.20;;;;;;;;;;5075177;28;20255;-69
2022/02/12 13:14:02;;;;;;;6.60;2.80;;;;;;;;;;5075808;28;20641;-69
2022/02/12 13:16:34;;;;;;;6.32;3.78;;;;;;;;;;5075726;28;20228;-69
2022/02/12 13:19:03;;;;;;;5.05;2.50;;;;;;;;;;5075802;28;20247;-69
2022/02/12 13:21:31;;;;;;;5.25;2.88;;;;;;;;;;5075537;28;20200;-70
2022/02/12 13:24:05;;;;;;;6.47;3.00;;;;;;;;;;5075589;28;20259;-70
2022/02/12 13:26:33;;;;;;;11.43;3.28;;;;;;;;;;5075645;28;20181;-70
2022/02/12 13:29:00;;;;;;;5.80;2.97;;;;;;;;;;5075962;28;20588;-70
2022/02/12 13:31:28;;;;;;;11.23;4.55;;;;;;;;;;5075029;28;20309;-69
2022/02/12 13:33:59;;;;;;;13.75;4.40;;;;;;;;;;5075672;28;20202;-71
2022/02/12 13:36:27;;;;;;;6.82;3.15;;;;;;;;;;5075010;28;20199;-69
2022/02/12 13:39:03;;;;;;;4.38;2.70;;;;;;;;;;5074753;28;20236;-69
2022/02/12 13:41:30;;;;;;;24.33;5.60;;;;;;;;;;5075447;28;20204;-69
2022/02/12 13:43:58;;;;;;;6.35;3.20;;;;;;;;;;5074871;28;20200;-70
2022/02/12 13:46:25;;;;;;;6.15;3.60;;;;;;;;;;5075296;28;20569;-69
2022/02/12 13:48:53;;;;;;;12.38;3.35;;;;;;;;;;5074720;28;20201;-70
2022/02/12 13:51:21;;;;;;;7.03;3.53;;;;;;;;;;5074901;28;20306;-69
2022/02/12 13:53:52;;;;;;;7.15;4.05;;;;;;;;;;5074628;28;20232;-69
2022/02/12 13:56:20;;;;;;;5.03;2.50;;;;;;;;;;5074937;28;20265;-69
2022/02/12 13:58:47;;;;;;;8.48;3.45;;;;;;;;;;5074774;28;20200;-69
2022/02/12 14:01:15;;;;;;;5.20;3.15;;;;;;;;;;5074618;28;20212;-69
2022/02/12 14:03:45;;;;;;;7.82;3.95;;;;;;;;;;5074571;28;20205;-69
2022/02/12 14:06:13;;;;;;;6.38;3.47;;;;;;;;;;5074028;28;20192;-69
2022/02/12 14:08:41;;;;;;;7.43;3.40;;;;;;;;;;5074687;28;20215;-69
2022/02/12 14:11:11;;;;;;;10.38;4.15;;;;;;;;;;5073992;28;20697;-69
2022/02/12 14:13:44;;;;;;;9.55;4.35;;;;;;;;;;5074019;28;20208;-70
2022/02/12 14:16:12;;;;;;;7.85;3.13;;;;;;;;;;5073912;28;20186;-70
2022/02/12 14:18:39;;;;;;;9.50;3.45;;;;;;;;;;5073887;28;20196;-70
2022/02/12 14:21:07;;;;;;;8.55;3.20;;;;;;;;;;5074204;28;20207;-69
2022/02/12 14:23:35;;;;;;;9.38;3.65;;;;;;;;;;5074111;28;20622;-69
2022/02/12 14:26:02;;;;;;;6.70;3.40;;;;;;;;;;5074008;28;20199;-70
2022/02/12 14:28:31;;;;;;;4.07;3.05;;;;;;;;;;5074021;28;20236;-69
2022/02/12 14:30:58;;;;;;;4.38;2.75;;;;;;;;;;5073695;28;20733;-69
2022/02/12 14:33:26;;;;;;;3.17;2.88;;;;;;;;;;5073957;28;20197;-70
2022/02/12 14:35:53;;;;;;;4.18;2.83;;;;;;;;;;5073889;28;20199;-69
2022/02/12 14:38:20;;;;;;;7.63;3.00;;;;;;;;;;5073467;28;20716;-69
2022/02/12 14:40:48;;;;;;;6.18;3.13;;;;;;;;;;5073698;28;20731;-70
2022/02/12 14:43:15;;;;;;;9.68;3.65;;;;;;;;;;5073364;28;20216;-71
2022/02/12 14:45:44;;;;;;;11.57;4.55;;;;;;;;;;5074141;28;20550;-70
2022/02/12 14:48:11;;;;;;;8.43;3.22;;;;;;;;;;5073361;28;20235;-71
2022/02/12 14:50:39;;;;;;;8.48;2.85;;;;;;;;;;5072635;28;20677;-69
2022/02/12 14:53:06;;;;;;;7.07;3.60;;;;;;;;;;5072169;28;20255;-69